sensor_id;sensor_type;location;lat;lon;timestamp;pressure;altitude;pressure_sealevel;temperature
11424;BMP180;5768;51.476;7.210;2023-10-31T00:04:49;98171.00;;;16.10
11424;BMP180;5768;51.476;7.210;2023-10-31T00:09:51;98196.00;;;15.90
11424;BMP180;5768;51.476;7.210;2023-10-31T00:14:55;98205.00;;;15.60
11424;BMP180;5768;51.476;7.210;2023-10-31T00:19:57;98211.00;;;15.40
11424;BMP180;5768;51.476;7.210;2023-10-31T00:24:59;98250.00;;;15.30
11424;BMP180;5768;51.476;7.210;2023-10-31T00:30:06;98250.00;;;15.00
11424;BMP180;5768;51.476;7.210;2023-10-31T00:35:08;98253.00;;;14.80
11424;BMP180;5768;51.476;7.210;2023-10-31T00:40:13;98245.00;;;14.70
11424;BMP180;5768;51.476;7.210;2023-10-31T00:45:22;98271.00;;;14.60
11424;BMP180;5768;51.476;7.210;2023-10-31T00:50:24;98256.00;;;14.50
11424;BMP180;5768;51.476;7.210;2023-10-31T00:55:27;98286.00;;;14.50
11424;BMP180;5768;51.476;7.210;2023-10-31T01:00:31;98297.00;;;14.40
11424;BMP180;5768;51.476;7.210;2023-10-31T01:05:35;98311.00;;;14.30
11424;BMP180;5768;51.476;7.210;2023-10-31T01:10:37;98322.00;;;14.30
11424;BMP180;5768;51.476;7.210;2023-10-31T01:15:44;98323.00;;;14.20
11424;BMP180;5768;51.476;7.210;2023-10-31T01:20:46;98315.00;;;14.10
11424;BMP180;5768;51.476;7.210;2023-10-31T01:25:49;98348.00;;;14.10
11424;BMP180;5768;51.476;7.210;2023-10-31T01:30:52;98357.00;;;14.00
11424;BMP180;5768;51.476;7.210;2023-10-31T01:35:58;98367.00;;;14.00
11424;BMP180;5768;51.476;7.210;2023-10-31T01:41:00;98380.00;;;14.00
11424;BMP180;5768;51.476;7.210;2023-10-31T01:46:04;98380.00;;;14.00
11424;BMP180;5768;51.476;7.210;2023-10-31T01:51:07;98385.00;;;14.00
11424;BMP180;5768;51.476;7.210;2023-10-31T01:56:09;98386.00;;;14.10
11424;BMP180;5768;51.476;7.210;2023-10-31T02:01:13;98392.00;;;14.00
11424;BMP180;5768;51.476;7.210;2023-10-31T02:06:16;98398.00;;;13.90
11424;BMP180;5768;51.476;7.210;2023-10-31T02:11:18;98384.00;;;14.00
11424;BMP180;5768;51.476;7.210;2023-10-31T02:16:22;98379.00;;;14.00
11424;BMP180;5768;51.476;7.210;2023-10-31T02:21:25;98380.00;;;14.00
11424;BMP180;5768;51.476;7.210;2023-10-31T02:26:32;98387.00;;;14.00
11424;BMP180;5768;51.476;7.210;2023-10-31T02:31:34;98401.00;;;13.90
11424;BMP180;5768;51.476;7.210;2023-10-31T02:36:37;98393.00;;;13.90
11424;BMP180;5768;51.476;7.210;2023-10-31T02:41:40;98399.00;;;13.70
11424;BMP180;5768;51.476;7.210;2023-10-31T02:46:42;98409.00;;;13.70
11424;BMP180;5768;51.476;7.210;2023-10-31T02:51:45;98402.00;;;13.70
11424;BMP180;5768;51.476;7.210;2023-10-31T02:56:48;98400.00;;;13.50
11424;BMP180;5768;51.476;7.210;2023-10-31T03:01:53;98409.00;;;13.50
11424;BMP180;5768;51.476;7.210;2023-10-31T03:06:56;98414.00;;;13.40
11424;BMP180;5768;51.476;7.210;2023-10-31T03:12:00;98408.00;;;13.40
11424;BMP180;5768;51.476;7.210;2023-10-31T03:17:02;98420.00;;;13.40
11424;BMP180;5768;51.476;7.210;2023-10-31T03:22:04;98410.00;;;13.30
11424;BMP180;5768;51.476;7.210;2023-10-31T03:27:08;98422.00;;;13.20
11424;BMP180;5768;51.476;7.210;2023-10-31T03:32:11;98417.00;;;13.20
11424;BMP180;5768;51.476;7.210;2023-10-31T03:37:17;98420.00;;;13.20
11424;BMP180;5768;51.476;7.210;2023-10-31T03:42:20;98422.00;;;13.20
11424;BMP180;5768;51.476;7.210;2023-10-31T03:47:23;98421.00;;;13.20
11424;BMP180;5768;51.476;7.210;2023-10-31T03:52:25;98428.00;;;13.30
11424;BMP180;5768;51.476;7.210;2023-10-31T03:57:28;98434.00;;;13.20
11424;BMP180;5768;51.476;7.210;2023-10-31T04:02:31;98453.00;;;13.20
11424;BMP180;5768;51.476;7.210;2023-10-31T04:07:34;98438.00;;;13.00
11424;BMP180;5768;51.476;7.210;2023-10-31T04:12:38;98438.00;;;13.00
11424;BMP180;5768;51.476;7.210;2023-10-31T04:17:41;98444.00;;;12.90
11424;BMP180;5768;51.476;7.210;2023-10-31T04:22:43;98446.00;;;12.90
11424;BMP180;5768;51.476;7.210;2023-10-31T04:27:47;98459.00;;;12.90
11424;BMP180;5768;51.476;7.210;2023-10-31T04:32:49;98457.00;;;13.00
11424;BMP180;5768;51.476;7.210;2023-10-31T04:37:51;98447.00;;;13.00
11424;BMP180;5768;51.476;7.210;2023-10-31T04:42:55;98456.00;;;13.00
11424;BMP180;5768;51.476;7.210;2023-10-31T04:47:58;98450.00;;;13.10
11424;BMP180;5768;51.476;7.210;2023-10-31T04:53:00;98468.00;;;13.10
11424;BMP180;5768;51.476;7.210;2023-10-31T04:58:04;98469.00;;;13.10
11424;BMP180;5768;51.476;7.210;2023-10-31T05:03:07;98463.00;;;13.20
11424;BMP180;5768;51.476;7.210;2023-10-31T05:08:09;98483.00;;;13.30
11424;BMP180;5768;51.476;7.210;2023-10-31T05:13:12;98487.00;;;13.30
11424;BMP180;5768;51.476;7.210;2023-10-31T05:18:15;98478.00;;;13.30
11424;BMP180;5768;51.476;7.210;2023-10-31T05:23:17;98510.00;;;13.40
11424;BMP180;5768;51.476;7.210;2023-10-31T05:28:21;98504.00;;;13.40
11424;BMP180;5768;51.476;7.210;2023-10-31T05:33:24;98509.00;;;13.40
11424;BMP180;5768;51.476;7.210;2023-10-31T05:38:27;98499.00;;;13.40
11424;BMP180;5768;51.476;7.210;2023-10-31T05:43:31;98499.00;;;13.40
11424;BMP180;5768;51.476;7.210;2023-10-31T05:48:34;98529.00;;;13.40
11424;BMP180;5768;51.476;7.210;2023-10-31T05:53:40;98542.00;;;13.40
11424;BMP180;5768;51.476;7.210;2023-10-31T05:58:45;98552.00;;;13.50
11424;BMP180;5768;51.476;7.210;2023-10-31T06:03:47;98558.00;;;13.50
11424;BMP180;5768;51.476;7.210;2023-10-31T06:08:53;98570.00;;;13.50
11424;BMP180;5768;51.476;7.210;2023-10-31T06:13:56;98579.00;;;13.50
11424;BMP180;5768;51.476;7.210;2023-10-31T06:18:58;98594.00;;;13.60
11424;BMP180;5768;51.476;7.210;2023-10-31T06:24:04;98599.00;;;13.60
11424;BMP180;5768;51.476;7.210;2023-10-31T06:29:07;98609.00;;;13.70
11424;BMP180;5768;51.476;7.210;2023-10-31T06:34:10;98606.00;;;13.70
11424;BMP180;5768;51.476;7.210;2023-10-31T06:39:12;98619.00;;;13.70
11424;BMP180;5768;51.476;7.210;2023-10-31T06:44:19;98628.00;;;13.70
11424;BMP180;5768;51.476;7.210;2023-10-31T06:49:21;98639.00;;;13.70
11424;BMP180;5768;51.476;7.210;2023-10-31T06:54:24;98649.00;;;13.70
11424;BMP180;5768;51.476;7.210;2023-10-31T06:59:28;98643.00;;;13.80
11424;BMP180;5768;51.476;7.210;2023-10-31T07:04:30;98661.00;;;13.90
11424;BMP180;5768;51.476;7.210;2023-10-31T07:09:33;98658.00;;;13.90
11424;BMP180;5768;51.476;7.210;2023-10-31T07:14:37;98649.00;;;13.90
11424;BMP180;5768;51.476;7.210;2023-10-31T07:19:41;98669.00;;;13.90
11424;BMP180;5768;51.476;7.210;2023-10-31T07:24:44;98656.00;;;13.90
11424;BMP180;5768;51.476;7.210;2023-10-31T07:29:48;98672.00;;;13.80
11424;BMP180;5768;51.476;7.210;2023-10-31T07:34:52;98676.00;;;14.00
11424;BMP180;5768;51.476;7.210;2023-10-31T07:39:54;98665.00;;;14.00
11424;BMP180;5768;51.476;7.210;2023-10-31T07:44:58;98684.00;;;14.10
11424;BMP180;5768;51.476;7.210;2023-10-31T07:50:00;98674.00;;;14.10
11424;BMP180;5768;51.476;7.210;2023-10-31T07:55:06;98678.00;;;14.20
11424;BMP180;5768;51.476;7.210;2023-10-31T08:00:13;98669.00;;;14.10
11424;BMP180;5768;51.476;7.210;2023-10-31T08:05:16;98685.00;;;14.20
11424;BMP180;5768;51.476;7.210;2023-10-31T08:10:18;98698.00;;;14.20
11424;BMP180;5768;51.476;7.210;2023-10-31T08:15:22;98710.00;;;14.30
11424;BMP180;5768;51.476;7.210;2023-10-31T08:20:24;98705.00;;;14.40
11424;BMP180;5768;51.476;7.210;2023-10-31T08:25:26;98714.00;;;14.30
11424;BMP180;5768;51.476;7.210;2023-10-31T08:30:33;98697.00;;;14.20
11424;BMP180;5768;51.476;7.210;2023-10-31T08:35:36;98714.00;;;14.30
11424;BMP180;5768;51.476;7.210;2023-10-31T08:40:38;98729.00;;;14.40
11424;BMP180;5768;51.476;7.210;2023-10-31T08:45:43;98744.00;;;14.50
11424;BMP180;5768;51.476;7.210;2023-10-31T08:50:46;98753.00;;;14.40
11424;BMP180;5768;51.476;7.210;2023-10-31T08:55:49;98742.00;;;14.30
11424;BMP180;5768;51.476;7.210;2023-10-31T09:00:52;98762.00;;;14.40
11424;BMP180;5768;51.476;7.210;2023-10-31T09:05:58;98763.00;;;14.60
11424;BMP180;5768;51.476;7.210;2023-10-31T09:11:01;98775.00;;;14.70
11424;BMP180;5768;51.476;7.210;2023-10-31T09:16:07;98787.00;;;14.70
11424;BMP180;5768;51.476;7.210;2023-10-31T09:21:11;98802.00;;;14.80
11424;BMP180;5768;51.476;7.210;2023-10-31T09:26:15;98811.00;;;14.90
11424;BMP180;5768;51.476;7.210;2023-10-31T09:31:20;98809.00;;;15.00
11424;BMP180;5768;51.476;7.210;2023-10-31T09:36:23;98826.00;;;15.00
11424;BMP180;5768;51.476;7.210;2023-10-31T09:41:27;98837.00;;;14.90
11424;BMP180;5768;51.476;7.210;2023-10-31T09:46:31;98846.00;;;14.90
11424;BMP180;5768;51.476;7.210;2023-10-31T09:51:33;98851.00;;;15.00
11424;BMP180;5768;51.476;7.210;2023-10-31T09:56:36;98870.00;;;15.10
11424;BMP180;5768;51.476;7.210;2023-10-31T10:01:40;98870.00;;;15.10
11424;BMP180;5768;51.476;7.210;2023-10-31T10:06:51;98868.00;;;15.20
11424;BMP180;5768;51.476;7.210;2023-10-31T10:11:54;98890.00;;;15.30
11424;BMP180;5768;51.476;7.210;2023-10-31T10:16:58;98878.00;;;15.40
11424;BMP180;5768;51.476;7.210;2023-10-31T10:22:00;98909.00;;;15.30
11424;BMP180;5768;51.476;7.210;2023-10-31T10:27:03;98897.00;;;15.10
11424;BMP180;5768;51.476;7.210;2023-10-31T10:32:08;98906.00;;;15.20
11424;BMP180;5768;51.476;7.210;2023-10-31T10:37:10;98918.00;;;15.20
11424;BMP180;5768;51.476;7.210;2023-10-31T10:42:16;98910.00;;;15.20
11424;BMP180;5768;51.476;7.210;2023-10-31T10:47:21;98924.00;;;15.20
11424;BMP180;5768;51.476;7.210;2023-10-31T10:52:30;98929.00;;;15.30
11424;BMP180;5768;51.476;7.210;2023-10-31T10:57:41;98926.00;;;15.20
11424;BMP180;5768;51.476;7.210;2023-10-31T11:02:46;98940.00;;;15.30
11424;BMP180;5768;51.476;7.210;2023-10-31T11:07:52;98932.00;;;15.20
11424;BMP180;5768;51.476;7.210;2023-10-31T11:12:57;98922.00;;;15.10
11424;BMP180;5768;51.476;7.210;2023-10-31T11:18:01;98946.00;;;15.30
11424;BMP180;5768;51.476;7.210;2023-10-31T11:23:04;98929.00;;;15.50
11424;BMP180;5768;51.476;7.210;2023-10-31T11:28:15;98950.00;;;15.60
11424;BMP180;5768;51.476;7.210;2023-10-31T11:33:21;98958.00;;;15.80
11424;BMP180;5768;51.476;7.210;2023-10-31T11:38:32;98963.00;;;15.90
11424;BMP180;5768;51.476;7.210;2023-10-31T11:43:52;98959.00;;;15.90
11424;BMP180;5768;51.476;7.210;2023-10-31T11:48:57;98968.00;;;16.00
11424;BMP180;5768;51.476;7.210;2023-10-31T11:54:02;98986.00;;;16.20
11424;BMP180;5768;51.476;7.210;2023-10-31T11:59:08;98983.00;;;16.60
11424;BMP180;5768;51.476;7.210;2023-10-31T12:04:23;98968.00;;;17.00
11424;BMP180;5768;51.476;7.210;2023-10-31T12:09:27;98972.00;;;17.10
11424;BMP180;5768;51.476;7.210;2023-10-31T12:14:30;98983.00;;;17.00
11424;BMP180;5768;51.476;7.210;2023-10-31T12:19:34;98981.00;;;16.80
11424;BMP180;5768;51.476;7.210;2023-10-31T12:24:36;98987.00;;;16.80
11424;BMP180;5768;51.476;7.210;2023-10-31T12:29:38;98989.00;;;16.80
11424;BMP180;5768;51.476;7.210;2023-10-31T12:34:43;98994.00;;;16.80
11424;BMP180;5768;51.476;7.210;2023-10-31T12:39:47;98989.00;;;16.60
11424;BMP180;5768;51.476;7.210;2023-10-31T12:44:51;98987.00;;;16.40
11424;BMP180;5768;51.476;7.210;2023-10-31T12:50:11;98986.00;;;16.40
11424;BMP180;5768;51.476;7.210;2023-10-31T12:55:15;98993.00;;;16.40
11424;BMP180;5768;51.476;7.210;2023-10-31T13:00:19;98994.00;;;16.40
11424;BMP180;5768;51.476;7.210;2023-10-31T13:05:27;99001.00;;;16.50
11424;BMP180;5768;51.476;7.210;2023-10-31T13:10:31;98989.00;;;16.60
11424;BMP180;5768;51.476;7.210;2023-10-31T13:15:34;98994.00;;;16.70
11424;BMP180;5768;51.476;7.210;2023-10-31T13:20:40;98991.00;;;16.80
11424;BMP180;5768;51.476;7.210;2023-10-31T13:25:42;98985.00;;;16.50
11424;BMP180;5768;51.476;7.210;2023-10-31T13:30:44;98991.00;;;18.00
11424;BMP180;5768;51.476;7.210;2023-10-31T13:35:50;99001.00;;;18.30
11424;BMP180;5768;51.476;7.210;2023-10-31T13:40:53;99012.00;;;18.60
11424;BMP180;5768;51.476;7.210;2023-10-31T13:45:55;98994.00;;;18.80
11424;BMP180;5768;51.476;7.210;2023-10-31T13:50:59;99022.00;;;20.30
11424;BMP180;5768;51.476;7.210;2023-10-31T13:56:01;99018.00;;;20.80
11424;BMP180;5768;51.476;7.210;2023-10-31T14:01:04;99020.00;;;21.20
11424;BMP180;5768;51.476;7.210;2023-10-31T14:06:12;99017.00;;;21.40
11424;BMP180;5768;51.476;7.210;2023-10-31T14:11:15;99025.00;;;22.10
11424;BMP180;5768;51.476;7.210;2023-10-31T14:16:17;99023.00;;;22.90
11424;BMP180;5768;51.476;7.210;2023-10-31T14:21:21;99041.00;;;23.00
11424;BMP180;5768;51.476;7.210;2023-10-31T14:26:24;99044.00;;;23.50
11424;BMP180;5768;51.476;7.210;2023-10-31T14:31:27;99042.00;;;23.80
11424;BMP180;5768;51.476;7.210;2023-10-31T14:36:31;99056.00;;;24.00
11424;BMP180;5768;51.476;7.210;2023-10-31T14:41:36;99059.00;;;24.10
11424;BMP180;5768;51.476;7.210;2023-10-31T14:46:39;99056.00;;;23.90
11424;BMP180;5768;51.476;7.210;2023-10-31T14:51:43;99066.00;;;24.20
11424;BMP180;5768;51.476;7.210;2023-10-31T14:56:46;99064.00;;;24.20
11424;BMP180;5768;51.476;7.210;2023-10-31T15:01:51;99080.00;;;23.70
11424;BMP180;5768;51.476;7.210;2023-10-31T15:06:55;99079.00;;;22.90
11424;BMP180;5768;51.476;7.210;2023-10-31T15:11:57;99073.00;;;23.10
11424;BMP180;5768;51.476;7.210;2023-10-31T15:16:59;99081.00;;;23.10
11424;BMP180;5768;51.476;7.210;2023-10-31T15:22:04;99084.00;;;22.30
11424;BMP180;5768;51.476;7.210;2023-10-31T15:27:06;99086.00;;;20.40
11424;BMP180;5768;51.476;7.210;2023-10-31T15:32:10;99087.00;;;19.00
11424;BMP180;5768;51.476;7.210;2023-10-31T15:37:15;99089.00;;;18.20
11424;BMP180;5768;51.476;7.210;2023-10-31T15:42:17;99095.00;;;17.60
11424;BMP180;5768;51.476;7.210;2023-10-31T15:47:19;99106.00;;;17.20
11424;BMP180;5768;51.476;7.210;2023-10-31T15:52:23;99106.00;;;17.00
11424;BMP180;5768;51.476;7.210;2023-10-31T15:57:26;99104.00;;;17.00
11424;BMP180;5768;51.476;7.210;2023-10-31T16:02:28;99104.00;;;17.00
11424;BMP180;5768;51.476;7.210;2023-10-31T16:07:32;99109.00;;;17.00
11424;BMP180;5768;51.476;7.210;2023-10-31T16:12:36;99114.00;;;17.00
11424;BMP180;5768;51.476;7.210;2023-10-31T16:17:38;99106.00;;;17.00
11424;BMP180;5768;51.476;7.210;2023-10-31T16:22:42;99118.00;;;17.00
11424;BMP180;5768;51.476;7.210;2023-10-31T16:27:45;99120.00;;;17.00
11424;BMP180;5768;51.476;7.210;2023-10-31T16:32:52;99128.00;;;17.00
11424;BMP180;5768;51.476;7.210;2023-10-31T16:37:56;99124.00;;;16.90
11424;BMP180;5768;51.476;7.210;2023-10-31T16:42:59;99140.00;;;16.90
11424;BMP180;5768;51.476;7.210;2023-10-31T16:48:04;99135.00;;;16.90
11424;BMP180;5768;51.476;7.210;2023-10-31T16:53:07;99141.00;;;16.70
11424;BMP180;5768;51.476;7.210;2023-10-31T16:58:10;99144.00;;;16.30
11424;BMP180;5768;51.476;7.210;2023-10-31T17:03:12;99128.00;;;15.90
11424;BMP180;5768;51.476;7.210;2023-10-31T17:08:17;99146.00;;;15.70
11424;BMP180;5768;51.476;7.210;2023-10-31T17:13:20;99142.00;;;15.60
11424;BMP180;5768;51.476;7.210;2023-10-31T17:18:22;99144.00;;;15.60
11424;BMP180;5768;51.476;7.210;2023-10-31T17:23:27;99162.00;;;15.50
11424;BMP180;5768;51.476;7.210;2023-10-31T17:28:31;99164.00;;;15.40
11424;BMP180;5768;51.476;7.210;2023-10-31T17:33:39;99170.00;;;15.40
11424;BMP180;5768;51.476;7.210;2023-10-31T17:38:48;99173.00;;;15.40
11424;BMP180;5768;51.476;7.210;2023-10-31T17:43:51;99182.00;;;15.50
11424;BMP180;5768;51.476;7.210;2023-10-31T17:48:55;99190.00;;;15.50
11424;BMP180;5768;51.476;7.210;2023-10-31T17:54:07;99188.00;;;15.40
11424;BMP180;5768;51.476;7.210;2023-10-31T17:59:10;99198.00;;;15.30
11424;BMP180;5768;51.476;7.210;2023-10-31T18:04:13;99203.00;;;15.10
11424;BMP180;5768;51.476;7.210;2023-10-31T18:09:21;99211.00;;;15.10
11424;BMP180;5768;51.476;7.210;2023-10-31T18:14:23;99231.00;;;15.00
11424;BMP180;5768;51.476;7.210;2023-10-31T18:19:26;99235.00;;;14.80
11424;BMP180;5768;51.476;7.210;2023-10-31T18:24:30;99214.00;;;14.70
11424;BMP180;5768;51.476;7.210;2023-10-31T18:29:33;99226.00;;;14.70
11424;BMP180;5768;51.476;7.210;2023-10-31T18:34:36;99227.00;;;14.70
11424;BMP180;5768;51.476;7.210;2023-10-31T18:39:40;99238.00;;;14.70
11424;BMP180;5768;51.476;7.210;2023-10-31T18:44:43;99231.00;;;14.70
11424;BMP180;5768;51.476;7.210;2023-10-31T18:49:46;99234.00;;;14.70
11424;BMP180;5768;51.476;7.210;2023-10-31T18:54:51;99218.00;;;14.80
11424;BMP180;5768;51.476;7.210;2023-10-31T18:59:54;99233.00;;;14.80
11424;BMP180;5768;51.476;7.210;2023-10-31T19:04:57;99230.00;;;14.80
11424;BMP180;5768;51.476;7.210;2023-10-31T19:10:01;99222.00;;;14.90
11424;BMP180;5768;51.476;7.210;2023-10-31T19:15:04;99221.00;;;15.00
11424;BMP180;5768;51.476;7.210;2023-10-31T19:20:08;99225.00;;;15.10
11424;BMP180;5768;51.476;7.210;2023-10-31T19:25:15;99219.00;;;15.10
11424;BMP180;5768;51.476;7.210;2023-10-31T19:30:18;99204.00;;;15.00
11424;BMP180;5768;51.476;7.210;2023-10-31T19:35:23;99219.00;;;15.10
11424;BMP180;5768;51.476;7.210;2023-10-31T19:40:27;99216.00;;;15.10
11424;BMP180;5768;51.476;7.210;2023-10-31T19:45:30;99211.00;;;15.10
11424;BMP180;5768;51.476;7.210;2023-10-31T19:50:33;99219.00;;;15.10
11424;BMP180;5768;51.476;7.210;2023-10-31T19:55:36;99217.00;;;15.10
11424;BMP180;5768;51.476;7.210;2023-10-31T20:00:41;99216.00;;;15.20
11424;BMP180;5768;51.476;7.210;2023-10-31T20:05:45;99217.00;;;15.10
11424;BMP180;5768;51.476;7.210;2023-10-31T20:10:49;99223.00;;;15.10
11424;BMP180;5768;51.476;7.210;2023-10-31T20:15:51;99226.00;;;15.10
11424;BMP180;5768;51.476;7.210;2023-10-31T20:20:55;99207.00;;;14.90
11424;BMP180;5768;51.476;7.210;2023-10-31T20:25:59;99210.00;;;15.00
11424;BMP180;5768;51.476;7.210;2023-10-31T20:31:01;99215.00;;;15.00
11424;BMP180;5768;51.476;7.210;2023-10-31T20:36:05;99208.00;;;14.80
11424;BMP180;5768;51.476;7.210;2023-10-31T20:41:09;99212.00;;;14.70
11424;BMP180;5768;51.476;7.210;2023-10-31T20:46:11;99214.00;;;14.70
11424;BMP180;5768;51.476;7.210;2023-10-31T20:51:13;99209.00;;;14.60
11424;BMP180;5768;51.476;7.210;2023-10-31T20:56:20;99211.00;;;14.50
11424;BMP180;5768;51.476;7.210;2023-10-31T21:01:23;99215.00;;;14.50
11424;BMP180;5768;51.476;7.210;2023-10-31T21:06:26;99212.00;;;14.50
11424;BMP180;5768;51.476;7.210;2023-10-31T21:11:30;99216.00;;;14.50
11424;BMP180;5768;51.476;7.210;2023-10-31T21:16:33;99206.00;;;14.60
11424;BMP180;5768;51.476;7.210;2023-10-31T21:21:35;99215.00;;;14.60
11424;BMP180;5768;51.476;7.210;2023-10-31T21:26:39;99208.00;;;14.50
11424;BMP180;5768;51.476;7.210;2023-10-31T21:31:42;99200.00;;;14.40
11424;BMP180;5768;51.476;7.210;2023-10-31T21:36:45;99212.00;;;14.40
11424;BMP180;5768;51.476;7.210;2023-10-31T21:41:49;99202.00;;;14.40
11424;BMP180;5768;51.476;7.210;2023-10-31T21:46:52;99202.00;;;14.50
11424;BMP180;5768;51.476;7.210;2023-10-31T21:51:55;99205.00;;;14.50
11424;BMP180;5768;51.476;7.210;2023-10-31T21:56:59;99204.00;;;14.40
11424;BMP180;5768;51.476;7.210;2023-10-31T22:02:02;99209.00;;;14.50
11424;BMP180;5768;51.476;7.210;2023-10-31T22:07:05;99212.00;;;14.50
11424;BMP180;5768;51.476;7.210;2023-10-31T22:12:08;99220.00;;;14.60
11424;BMP180;5768;51.476;7.210;2023-10-31T22:17:11;99214.00;;;14.60
11424;BMP180;5768;51.476;7.210;2023-10-31T22:22:13;99220.00;;;14.70
11424;BMP180;5768;51.476;7.210;2023-10-31T22:27:17;99218.00;;;14.70
11424;BMP180;5768;51.476;7.210;2023-10-31T22:32:19;99224.00;;;14.60
11424;BMP180;5768;51.476;7.210;2023-10-31T22:37:22;99226.00;;;14.60
11424;BMP180;5768;51.476;7.210;2023-10-31T22:42:25;99221.00;;;14.70
11424;BMP180;5768;51.476;7.210;2023-10-31T22:47:28;99216.00;;;14.70
11424;BMP180;5768;51.476;7.210;2023-10-31T22:52:32;99194.00;;;14.70
11424;BMP180;5768;51.476;7.210;2023-10-31T22:57:36;99203.00;;;14.70
11424;BMP180;5768;51.476;7.210;2023-10-31T23:02:38;99214.00;;;14.50
11424;BMP180;5768;51.476;7.210;2023-10-31T23:07:40;99196.00;;;14.50
11424;BMP180;5768;51.476;7.210;2023-10-31T23:12:44;99203.00;;;14.40
11424;BMP180;5768;51.476;7.210;2023-10-31T23:17:47;99173.00;;;14.50
11424;BMP180;5768;51.476;7.210;2023-10-31T23:22:55;99194.00;;;14.50
11424;BMP180;5768;51.476;7.210;2023-10-31T23:27:59;99194.00;;;14.50
11424;BMP180;5768;51.476;7.210;2023-10-31T23:33:01;99188.00;;;14.50
11424;BMP180;5768;51.476;7.210;2023-10-31T23:38:04;99200.00;;;14.60
11424;BMP180;5768;51.476;7.210;2023-10-31T23:43:08;99192.00;;;14.70
11424;BMP180;5768;51.476;7.210;2023-10-31T23:48:10;99188.00;;;14.70
11424;BMP180;5768;51.476;7.210;2023-10-31T23:53:13;99190.00;;;14.70
11424;BMP180;5768;51.476;7.210;2023-10-31T23:58:16;99196.00;;;14.80
